createdAt,value
2017-07-21T02:36:32.073Z,18.28
2017-07-21T02:37:32.359Z,18.29
2017-07-21T02:38:32.362Z,18.26
2017-07-21T02:39:32.366Z,18.22
2017-07-21T02:40:32.066Z,18.22
2017-07-21T02:41:32.368Z,18.11
2017-07-21T02:42:32.078Z,18.2
2017-07-21T02:43:32.371Z,18.25
2017-07-21T02:44:32.438Z,18.31
2017-07-21T02:45:32.615Z,18.29
2017-07-21T02:46:32.404Z,18.26
2017-07-21T02:47:32.383Z,18.26
2017-07-21T02:48:32.381Z,18.31
2017-07-21T02:49:32.387Z,18.31
2017-07-21T02:50:32.381Z,18.34
2017-07-21T02:51:32.433Z,18.31
2017-07-21T02:52:32.084Z,18.34
2017-07-21T02:53:32.150Z,18.31
2017-07-21T02:54:32.452Z,18.28
2017-07-21T02:55:32.469Z,18.26
2017-07-21T02:56:32.749Z,18.23
2017-07-21T02:57:32.667Z,18.35
2017-07-21T02:58:32.472Z,18.38
2017-07-21T02:59:32.149Z,18.47
2017-07-21T03:00:32.403Z,18.41
2017-07-21T03:01:32.415Z,18.43
2017-07-21T03:02:32.415Z,18.28
2017-07-21T03:03:32.415Z,18.37
2017-07-21T03:04:32.420Z,18.22
2017-07-21T03:05:32.592Z,18.22
2017-07-21T03:06:32.564Z,18.16
2017-07-21T03:07:32.122Z,18.18
2017-07-21T03:08:32.305Z,18.11
2017-07-21T03:09:32.807Z,18.04
2017-07-21T03:10:32.886Z,18.07
2017-07-21T03:11:32.847Z,18.07
2017-07-21T03:12:32.743Z,18.05
2017-07-21T03:13:32.704Z,17.92
2017-07-21T03:14:32.146Z,17.9
2017-07-21T03:15:32.132Z,18.01
2017-07-21T03:16:32.911Z,17.95
2017-07-21T03:17:32.232Z,17.94
2017-07-21T03:18:32.605Z,17.9
2017-07-21T03:19:32.653Z,17.94
2017-07-21T03:20:32.723Z,17.94
2017-07-21T03:21:33.405Z,17.94
2017-07-21T03:22:32.507Z,17.92
2017-07-21T03:23:32.543Z,17.94
2017-07-21T03:24:32.456Z,18.05
2017-07-21T03:25:32.308Z,18.07
2017-07-21T03:26:32.436Z,18.04
2017-07-21T03:27:32.371Z,18.07
2017-07-21T03:28:32.833Z,17.9
2017-07-21T03:29:32.924Z,17.97
2017-07-21T03:30:32.894Z,17.95
2017-07-21T03:31:32.940Z,17.97
2017-07-21T03:32:32.467Z,17.95
2017-07-21T03:33:32.460Z,17.92
2017-07-21T03:34:32.462Z,17.98
2017-07-21T03:35:32.468Z,17.9
2017-07-21T03:36:32.671Z,17.9
2017-07-21T03:37:32.472Z,17.79
2017-07-21T03:38:32.473Z,17.79
2017-07-21T03:39:32.478Z,17.87
2017-07-21T03:40:32.179Z,17.89
2017-07-21T03:41:32.491Z,17.94
2017-07-21T03:42:32.495Z,17.95
2017-07-21T03:43:32.477Z,17.9
2017-07-21T03:44:32.479Z,17.87
2017-07-21T03:45:32.481Z,18
2017-07-21T03:46:32.493Z,18.01
2017-07-21T03:47:32.496Z,18.07
2017-07-21T03:48:32.496Z,18.18
2017-07-21T03:49:32.194Z,18.13
2017-07-21T03:50:32.497Z,18.18
2017-07-21T03:51:32.548Z,18.2
2017-07-21T03:52:32.197Z,18.22
2017-07-21T03:53:32.499Z,18.25
2017-07-21T03:54:32.504Z,18.2
2017-07-21T03:55:32.508Z,18.23
2017-07-21T03:56:32.506Z,18.2
2017-07-21T03:57:32.503Z,18.22
2017-07-21T03:58:32.507Z,18.2
2017-07-21T03:59:32.511Z,18.18
2017-07-21T04:00:32.517Z,18.23
2017-07-21T04:01:32.513Z,18.2
2017-07-21T04:02:32.534Z,18.31
2017-07-21T04:03:32.535Z,18.23
2017-07-21T04:04:32.532Z,18.22
2017-07-21T04:05:32.651Z,18.26
2017-07-21T04:06:37.687Z,18.23
2017-07-21T04:07:32.529Z,18.26
2017-07-21T04:08:32.535Z,18.28
2017-07-21T04:09:32.540Z,18.08
2017-07-21T04:10:32.249Z,18.18
2017-07-21T04:11:32.541Z,18.15
2017-07-21T04:12:32.544Z,18.13
2017-07-21T04:13:32.546Z,18.07
2017-07-21T04:14:32.242Z,18.16
2017-07-21T04:15:32.544Z,18.18
2017-07-21T04:16:32.557Z,18.11
2017-07-21T04:17:32.554Z,18.11
2017-07-21T04:18:32.558Z,18.11
2017-07-21T04:19:32.551Z,18.23
2017-07-21T04:20:32.558Z,18.23
2017-07-21T04:21:32.556Z,18.25
2017-07-21T04:22:32.605Z,18.28
2017-07-21T04:23:32.570Z,18.25
2017-07-21T04:24:32.272Z,18.28
2017-07-21T04:25:32.614Z,18.34
2017-07-21T04:26:32.594Z,18.4
2017-07-21T04:27:32.574Z,18.56
2017-07-21T04:28:32.575Z,18.7
2017-07-21T04:29:32.579Z,18.96
2017-07-21T04:30:32.272Z,19.18
2017-07-21T04:31:32.583Z,19.45
2017-07-21T04:32:32.285Z,19.66
2017-07-21T04:33:32.581Z,19.81
2017-07-21T04:34:32.589Z,20.06
2017-07-21T04:35:32.590Z,20.37
2017-07-21T04:36:32.603Z,20.44
2017-07-21T04:37:34.209Z,20.7
2017-07-21T04:38:32.610Z,20.87
2017-07-21T04:39:32.610Z,21.02
2017-07-21T04:40:32.306Z,21.21
2017-07-21T04:41:32.628Z,21.37
2017-07-21T04:42:32.633Z,21.46
2017-07-21T04:43:32.312Z,21.6
2017-07-21T04:44:32.625Z,21.76
2017-07-21T04:45:32.332Z,21.92
2017-07-21T04:46:32.624Z,22.07
2017-07-21T04:47:32.339Z,22.13
2017-07-21T04:48:32.647Z,22.14
2017-07-21T04:49:32.344Z,22.25
2017-07-21T04:50:32.355Z,22.18
2017-07-21T04:51:32.361Z,21.95
2017-07-21T04:52:32.405Z,21.91
2017-07-21T04:53:32.665Z,21.77
2017-07-21T04:54:32.701Z,21.67
2017-07-21T04:55:32.380Z,21.55
2017-07-21T04:56:32.678Z,21.46
2017-07-21T04:57:32.688Z,21.5
2017-07-21T04:58:32.692Z,21.36
2017-07-21T04:59:32.386Z,21.17
2017-07-21T05:00:32.703Z,20.95
2017-07-21T05:01:32.696Z,20.88
2017-07-21T05:02:32.703Z,20.85
2017-07-21T05:03:32.404Z,20.74
2017-07-21T05:04:32.414Z,20.51
2017-07-21T05:05:32.716Z,20.47
2017-07-21T05:06:32.715Z,20.36
2017-07-21T05:07:32.779Z,20.26
2017-07-21T05:08:32.726Z,20.26
2017-07-21T05:09:32.729Z,20.19
2017-07-21T05:10:32.733Z,20.22
2017-07-21T05:11:32.742Z,20.19
2017-07-21T05:12:32.740Z,20.21
2017-07-21T05:13:32.748Z,20.16
2017-07-21T05:14:32.448Z,20.22
2017-07-21T05:15:32.751Z,20.28
2017-07-21T05:16:32.770Z,20.28
2017-07-21T05:17:32.460Z,20.41
2017-07-21T05:18:32.763Z,20.28
2017-07-21T05:19:32.167Z,20.43
2017-07-21T05:20:32.774Z,20.5
2017-07-21T05:21:32.476Z,20.7
2017-07-21T05:22:32.837Z,20.74
2017-07-21T05:23:32.483Z,20.81
2017-07-21T05:24:32.493Z,20.85
2017-07-21T05:25:32.795Z,20.96
2017-07-21T05:26:32.799Z,20.96
2017-07-21T05:27:32.814Z,20.95
2017-07-21T05:28:32.810Z,20.97
2017-07-21T05:29:32.814Z,20.96
2017-07-21T05:30:32.516Z,20.9
2017-07-21T05:31:32.828Z,20.93
2017-07-21T05:32:32.835Z,20.87
2017-07-21T05:33:32.832Z,20.81
2017-07-21T05:34:32.529Z,20.69
2017-07-21T05:35:32.834Z,20.75
2017-07-21T05:36:32.829Z,20.75
2017-07-21T05:37:32.888Z,20.75
2017-07-21T05:38:32.857Z,20.66
2017-07-21T05:39:32.857Z,20.66
2017-07-21T05:40:32.849Z,20.69
2017-07-21T05:41:32.874Z,20.7
2017-07-21T05:42:32.859Z,20.69
2017-07-21T05:43:32.881Z,20.72
2017-07-21T05:44:32.877Z,20.62
2017-07-21T05:45:32.876Z,20.62
2017-07-21T05:46:32.571Z,20.56
2017-07-21T05:47:32.884Z,20.48
2017-07-21T05:48:32.897Z,20.6
2017-07-21T05:49:32.892Z,20.74
2017-07-21T05:50:32.284Z,20.75
2017-07-21T05:51:32.903Z,20.82
2017-07-21T05:52:32.948Z,20.87
2017-07-21T05:53:32.914Z,20.82
2017-07-21T05:54:32.914Z,20.9
2017-07-21T05:55:32.918Z,20.81
2017-07-21T05:56:32.916Z,20.85
2017-07-21T05:57:32.916Z,20.9
2017-07-21T05:58:32.915Z,20.88
2017-07-21T05:59:32.625Z,20.82
2017-07-21T06:00:32.941Z,20.78
2017-07-21T06:01:32.948Z,20.88
2017-07-21T06:02:32.948Z,20.95
2017-07-21T06:03:32.949Z,21
2017-07-21T06:04:32.945Z,20.96
2017-07-21T06:05:32.641Z,20.96
2017-07-21T06:06:32.969Z,21.02
2017-07-21T06:07:33.015Z,21.03
2017-07-21T06:08:32.972Z,21.06
2017-07-21T06:09:32.967Z,20.99
2017-07-21T06:10:32.665Z,21.03
2017-07-21T06:11:32.972Z,21.09
2017-07-21T06:12:32.984Z,21.18
2017-07-21T06:13:32.679Z,21.27
2017-07-21T06:14:32.985Z,21.61
2017-07-21T06:15:32.985Z,22.18
2017-07-21T06:16:32.699Z,22.35
2017-07-21T06:17:32.694Z,22.65
2017-07-21T06:18:33.001Z,22.83
2017-07-21T06:19:32.702Z,22.73
2017-07-21T06:20:33.011Z,22.68
2017-07-21T06:21:32.713Z,22.93
2017-07-21T06:22:33.673Z,23.17
2017-07-21T06:23:33.019Z,23.62
2017-07-21T06:24:33.022Z,23.95
2017-07-21T06:25:33.027Z,24.53
2017-07-21T06:26:33.031Z,24.88
2017-07-21T06:27:33.053Z,25.1
2017-07-21T06:28:33.051Z,24.96
2017-07-21T06:29:33.052Z,25.06
2017-07-21T06:30:33.057Z,25.21
2017-07-21T06:31:32.457Z,25.48
2017-07-21T06:32:33.063Z,25.55
2017-07-21T06:33:33.077Z,25.87
2017-07-21T06:34:33.086Z,25.93
2017-07-21T06:35:33.088Z,25.85
2017-07-21T06:36:33.095Z,25.72
2017-07-21T06:37:33.099Z,25.95
2017-07-21T06:38:33.116Z,26.18
2017-07-21T06:39:33.123Z,25.93
2017-07-21T06:40:33.121Z,25.68
2017-07-21T06:41:33.139Z,25.6
2017-07-21T06:42:33.133Z,25.33
2017-07-21T06:43:33.137Z,24.96
2017-07-21T06:44:32.844Z,24.86
2017-07-21T06:45:33.150Z,24.74
2017-07-21T06:46:33.162Z,24.85
2017-07-21T06:47:32.862Z,24.81
2017-07-21T06:48:33.190Z,24.98
2017-07-21T06:49:32.877Z,25.23
2017-07-21T06:50:33.188Z,25.7
2017-07-21T06:51:32.894Z,25.93
2017-07-21T06:52:33.198Z,26.02
2017-07-21T06:53:33.197Z,25.87
2017-07-21T06:54:32.923Z,25.84
2017-07-21T06:55:33.217Z,25.7
2017-07-21T06:56:33.239Z,25.59
2017-07-21T06:57:33.230Z,25.47
2017-07-21T06:58:33.253Z,25.26
2017-07-21T06:59:33.248Z,25.25
2017-07-21T07:00:33.258Z,25.04
2017-07-21T07:01:33.255Z,24.88
2017-07-21T07:02:33.261Z,24.81
2017-07-21T07:03:33.268Z,24.86
2017-07-21T07:04:33.274Z,24.81
2017-07-21T07:05:33.295Z,24.76
2017-07-21T07:06:32.679Z,24.86
2017-07-21T07:07:33.296Z,24.8
2017-07-21T07:08:33.301Z,24.96
2017-07-21T07:09:33.011Z,24.96
2017-07-21T07:10:33.309Z,24.96
2017-07-21T07:11:33.069Z,25.04
2017-07-21T07:12:33.022Z,25.29
2017-07-21T07:13:33.031Z,25.66
2017-07-21T07:14:33.061Z,25.84
2017-07-21T07:15:33.375Z,25.96
2017-07-21T07:16:33.072Z,26.05
2017-07-21T07:17:33.360Z,26.1
2017-07-21T07:18:33.067Z,26.06
2017-07-21T07:19:33.370Z,26.25
2017-07-21T07:20:33.391Z,26.45
2017-07-21T07:21:33.087Z,26.68
2017-07-21T07:22:33.398Z,26.85
2017-07-21T07:23:36.346Z,26.97
2017-07-21T07:24:33.404Z,27
2017-07-21T07:25:33.410Z,27.25
2017-07-21T07:26:33.428Z,27.55
2017-07-21T07:27:33.425Z,27.59
2017-07-21T07:28:33.141Z,27.73
2017-07-21T07:29:33.136Z,27.65
2017-07-21T07:30:33.147Z,27.71
2017-07-21T07:31:33.452Z,27.87
2017-07-21T07:32:33.168Z,28.19
2017-07-21T07:33:33.466Z,28.64
2017-07-21T07:34:33.470Z,29.08
2017-07-21T07:35:33.495Z,29.76
2017-07-21T07:36:33.188Z,30.03
2017-07-21T07:37:33.512Z,30.48
2017-07-21T07:38:33.576Z,30.61
2017-07-21T07:39:33.517Z,30.8
2017-07-21T07:40:33.520Z,30.84
2017-07-21T07:41:33.529Z,30.77
2017-07-21T07:42:33.536Z,30.73
2017-07-21T07:43:33.549Z,30.61
2017-07-21T07:44:33.255Z,30.28
2017-07-21T07:45:33.277Z,30.16
2017-07-21T07:46:33.271Z,30.1
2017-07-21T07:47:33.576Z,29.78
2017-07-21T07:48:33.593Z,29.73
2017-07-21T07:49:33.595Z,29.44
2017-07-21T07:50:33.316Z,29.07
2017-07-21T07:51:33.611Z,28.85
2017-07-21T07:52:33.343Z,28.6
2017-07-21T07:53:35.441Z,28.37
2017-07-21T07:54:33.337Z,28.05
2017-07-21T07:55:33.653Z,27.78
2017-07-21T07:56:33.357Z,27.63
2017-07-21T07:57:33.671Z,27.6
2017-07-21T07:58:33.683Z,27.55
2017-07-21T07:59:33.693Z,27.37
2017-07-21T08:00:33.387Z,27.18
2017-07-21T08:01:33.694Z,26.92
2017-07-21T08:02:33.700Z,26.99
2017-07-21T08:03:33.713Z,27.03
2017-07-21T08:04:33.734Z,27
2017-07-21T08:05:33.732Z,27.12
2017-07-21T08:06:33.746Z,27.22
2017-07-21T08:07:33.752Z,27.39
2017-07-21T08:08:33.446Z,27.68
2017-07-21T08:09:33.754Z,27.52
2017-07-21T08:10:33.764Z,27.51
2017-07-21T08:11:33.464Z,27.48
2017-07-21T08:12:33.788Z,27.63
2017-07-21T08:13:33.786Z,27.54
2017-07-21T08:14:33.789Z,27.52
2017-07-21T08:15:33.814Z,27.52
2017-07-21T08:16:33.502Z,27.54
2017-07-21T08:17:33.503Z,27.59
2017-07-21T08:18:33.512Z,27.68
2017-07-21T08:19:33.831Z,27.9
2017-07-21T08:20:33.829Z,28.07
2017-07-21T08:21:33.830Z,28.05
2017-07-21T08:22:33.845Z,27.92
2017-07-21T08:23:33.549Z,27.68
2017-07-21T08:24:33.885Z,27.51
2017-07-21T08:25:33.877Z,27.27
2017-07-21T08:26:33.881Z,27.21
2017-07-21T08:27:33.895Z,27.12
2017-07-21T08:28:33.912Z,27.21
2017-07-21T08:29:33.892Z,27.47
2017-07-21T08:30:33.916Z,27.74
2017-07-21T08:31:33.925Z,27.78
2017-07-21T08:32:33.922Z,27.82
2017-07-21T08:33:33.938Z,28.02
2017-07-21T08:34:33.934Z,28.37
2017-07-21T08:35:33.956Z,28.81
2017-07-21T08:36:33.950Z,29.29
2017-07-21T08:37:33.969Z,29.45
2017-07-21T08:38:33.368Z,29.41
2017-07-21T08:39:33.988Z,29.32
2017-07-21T08:40:34.125Z,29.07
2017-07-21T08:41:34.008Z,28.96
2017-07-21T08:42:33.695Z,29.02
2017-07-21T08:43:33.718Z,29.27
2017-07-21T08:44:34.020Z,29.76
2017-07-21T08:45:33.716Z,30.13
2017-07-21T08:46:34.031Z,30.18
2017-07-21T08:47:34.035Z,30.06
2017-07-21T08:48:33.428Z,29.86
2017-07-21T08:49:33.756Z,29.56
2017-07-21T08:50:34.120Z,29.36
2017-07-21T08:51:34.084Z,29.26
2017-07-21T08:52:34.076Z,29.16
2017-07-21T08:53:34.088Z,29.29
2017-07-21T08:54:39.287Z,29.72
2017-07-21T08:55:34.120Z,30.02
2017-07-21T08:56:33.505Z,30.27
2017-07-21T08:57:34.143Z,30.15
2017-07-21T08:58:34.139Z,29.84
2017-07-21T08:59:34.168Z,29.5
2017-07-21T09:00:33.846Z,28.86
2017-07-21T09:01:34.144Z,28.2
2017-07-21T09:02:34.158Z,27.65
2017-07-21T09:03:34.188Z,27.2
2017-07-21T09:04:34.186Z,26.84
2017-07-21T09:05:34.188Z,26.4
2017-07-21T09:06:34.190Z,26.02
2017-07-21T09:07:34.211Z,25.72
2017-07-21T09:08:33.913Z,25.59
2017-07-21T09:09:34.274Z,25.59
2017-07-21T09:10:34.236Z,25.53
2017-07-21T09:11:34.225Z,25.55
2017-07-21T09:12:34.247Z,25.6
2017-07-21T09:13:34.238Z,25.62
2017-07-21T09:14:34.250Z,25.66
2017-07-21T09:15:34.254Z,25.62
2017-07-21T09:16:34.265Z,25.63
2017-07-21T09:17:34.274Z,25.68
2017-07-21T09:18:34.279Z,25.66
2017-07-21T09:19:33.991Z,25.8
2017-07-21T09:20:34.287Z,25.88
2017-07-21T09:21:33.991Z,26.1
2017-07-21T09:22:34.299Z,26.29
2017-07-21T09:23:34.303Z,26.4
2017-07-21T09:24:36.812Z,26.43
2017-07-21T09:25:34.313Z,26.34
2017-07-21T09:26:34.322Z,26.31
2017-07-21T09:27:34.346Z,26.28
2017-07-21T09:28:34.331Z,26.26
2017-07-21T09:29:34.343Z,26.37
2017-07-21T09:30:34.339Z,26.45
2017-07-21T09:31:34.350Z,26.45
2017-07-21T09:32:34.358Z,26.47
2017-07-21T09:33:34.388Z,26.55
2017-07-21T09:34:34.448Z,26.53
2017-07-21T09:35:34.455Z,26.51
2017-07-21T09:36:34.387Z,26.59
2017-07-21T09:37:34.388Z,26.65
2017-07-21T09:38:34.391Z,26.55
2017-07-21T09:39:34.395Z,26.44
2017-07-21T09:40:34.405Z,26.38
2017-07-21T09:41:34.418Z,26.37
2017-07-21T09:42:34.413Z,26.48
2017-07-21T09:43:34.145Z,26.55
2017-07-21T09:44:34.424Z,26.44
2017-07-21T09:45:34.144Z,26.38
2017-07-21T09:46:34.442Z,26.48
2017-07-21T09:47:34.438Z,26.51
2017-07-21T09:48:34.450Z,26.62
2017-07-21T09:49:34.460Z,26.62
2017-07-21T09:50:34.188Z,26.84
2017-07-21T09:51:34.478Z,26.92
2017-07-21T09:52:34.473Z,27.1
2017-07-21T09:53:34.508Z,27.11
2017-07-21T09:54:34.482Z,27.17
2017-07-21T09:55:34.500Z,27.15
2017-07-21T09:56:34.201Z,27.1
2017-07-21T09:57:34.501Z,27.07
2017-07-21T09:58:34.516Z,27.1
2017-07-21T09:59:34.511Z,27.08
2017-07-21T10:00:34.523Z,26.96
2017-07-21T10:01:34.226Z,26.84
2017-07-21T10:02:34.530Z,26.68
2017-07-21T10:03:34.539Z,26.7
2017-07-21T10:04:34.545Z,26.71
2017-07-21T10:05:34.262Z,26.71
2017-07-21T10:06:34.252Z,26.71
2017-07-21T10:07:34.265Z,26.63
2017-07-21T10:08:34.575Z,26.68
2017-07-21T10:09:34.577Z,26.8
2017-07-21T10:10:34.633Z,26.83
2017-07-21T10:11:34.584Z,27
2017-07-21T10:12:34.587Z,27.02
2017-07-21T10:13:34.631Z,27.1
2017-07-21T10:14:34.634Z,27.3
2017-07-21T10:15:34.377Z,27.4
2017-07-21T10:16:34.676Z,27.54
2017-07-21T10:17:34.610Z,27.58
2017-07-21T10:18:34.633Z,27.6
2017-07-21T10:19:34.643Z,27.71
2017-07-21T10:20:34.334Z,27.85
2017-07-21T10:21:34.640Z,28.01
2017-07-21T10:22:34.650Z,28.1
2017-07-21T10:23:34.651Z,28.23
2017-07-21T10:24:34.664Z,28.17
2017-07-21T10:25:34.945Z,28.19
2017-07-21T10:26:34.680Z,28.02
2017-07-21T10:27:34.680Z,27.92
2017-07-21T10:28:34.681Z,27.83
2017-07-21T10:29:34.699Z,27.85
2017-07-21T10:30:34.390Z,27.8
2017-07-21T10:31:34.698Z,27.77
2017-07-21T10:32:34.716Z,27.75
2017-07-21T10:33:34.714Z,27.78
2017-07-21T10:34:34.418Z,27.73
2017-07-21T10:35:34.722Z,27.87
2017-07-21T10:36:34.749Z,27.85
2017-07-21T10:37:34.432Z,27.75
2017-07-21T10:38:34.437Z,27.67
2017-07-21T10:39:34.749Z,27.64
2017-07-21T10:40:39.406Z,27.6
2017-07-21T10:41:34.755Z,27.64
2017-07-21T10:42:34.767Z,27.75
2017-07-21T10:43:34.780Z,27.9
2017-07-21T10:44:34.783Z,27.75
2017-07-21T10:45:34.489Z,27.95
2017-07-21T10:46:34.491Z,28.1
2017-07-21T10:47:34.490Z,27.98
2017-07-21T10:48:34.814Z,28.05
2017-07-21T10:49:34.814Z,27.9
2017-07-21T10:50:34.817Z,27.86
2017-07-21T10:51:34.815Z,27.75
2017-07-21T10:52:34.831Z,27.67
2017-07-21T10:53:34.830Z,27.74
2017-07-21T10:54:34.249Z,27.73
2017-07-21T10:55:34.850Z,27.87
2017-07-21T10:56:34.857Z,27.95
2017-07-21T10:57:34.909Z,28.07
2017-07-21T10:58:34.555Z,28.17
2017-07-21T10:59:34.574Z,28.35
2017-07-21T11:00:34.878Z,28.44
2017-07-21T11:01:34.873Z,28.47
2017-07-21T11:02:34.882Z,28.6
2017-07-21T11:03:34.589Z,28.7
2017-07-21T11:04:34.611Z,28.86
2017-07-21T11:05:34.609Z,28.88
2017-07-21T11:06:34.618Z,28.86
2017-07-21T11:07:34.617Z,28.72
2017-07-21T11:08:34.618Z,28.59
2017-07-21T11:09:34.922Z,28.66
2017-07-21T11:10:34.935Z,28.74
2017-07-21T11:11:34.697Z,28.76
2017-07-21T11:12:34.946Z,28.6
2017-07-21T11:13:34.960Z,28.44
2017-07-21T11:14:34.354Z,28.29
2017-07-21T11:15:34.963Z,28.38
2017-07-21T11:16:34.969Z,28.38
2017-07-21T11:17:34.974Z,28.25
2017-07-21T11:18:34.687Z,28.33
2017-07-21T11:19:34.988Z,28.44
2017-07-21T11:20:34.703Z,28.59
2017-07-21T11:21:35.003Z,28.54
2017-07-21T11:22:35.016Z,28.44
2017-07-21T11:23:34.723Z,28.52
2017-07-21T11:24:34.727Z,28.6
2017-07-21T11:25:35.025Z,28.69
2017-07-21T11:26:36.764Z,28.82
2017-07-21T11:27:35.043Z,29.02
2017-07-21T11:28:35.044Z,29.01
2017-07-21T11:29:35.051Z,28.94
2017-07-21T11:30:35.064Z,28.81
2017-07-21T11:31:35.068Z,28.93
2017-07-21T11:32:35.073Z,28.97
2017-07-21T11:33:34.774Z,29.08
2017-07-21T11:34:34.789Z,29.02
2017-07-21T11:35:35.099Z,28.97
2017-07-21T11:36:35.102Z,28.86
2017-07-21T11:37:35.101Z,28.67
2017-07-21T11:38:35.137Z,28.44
2017-07-21T11:39:34.816Z,28.3
2017-07-21T11:40:34.830Z,28.26
2017-07-21T11:41:35.933Z,28.11
2017-07-21T11:42:35.139Z,28.14
2017-07-21T11:43:34.844Z,28.19
2017-07-21T11:44:35.149Z,28.23
2017-07-21T11:45:35.159Z,28.23
2017-07-21T11:46:34.857Z,28.14
2017-07-21T11:47:34.560Z,28.12
2017-07-21T11:48:35.174Z,28.07
2017-07-21T11:49:35.202Z,27.98
2017-07-21T11:50:35.194Z,28.02
2017-07-21T11:51:34.885Z,28.1
2017-07-21T11:52:35.210Z,28.05
2017-07-21T11:53:35.203Z,28.23
2017-07-21T11:54:34.906Z,28.26
2017-07-21T11:55:34.613Z,28.26
2017-07-21T11:56:35.381Z,28.23
2017-07-21T11:57:35.228Z,28.2
2017-07-21T11:58:35.240Z,28.22
2017-07-21T11:59:34.947Z,28.12
2017-07-21T12:00:34.944Z,28.05
2017-07-21T12:01:35.253Z,28.02
2017-07-21T12:02:35.263Z,28.15
2017-07-21T12:03:35.266Z,28.26
2017-07-21T12:04:35.270Z,28.37
2017-07-21T12:05:34.973Z,28.45
2017-07-21T12:06:34.983Z,28.45
2017-07-21T12:07:35.294Z,28.44
2017-07-21T12:08:34.994Z,28.42
2017-07-21T12:09:35.309Z,28.37
2017-07-21T12:10:35.010Z,28.45
2017-07-21T12:11:34.714Z,28.49
2017-07-21T12:12:35.075Z,28.67
2017-07-21T12:13:35.040Z,28.81
2017-07-21T12:14:34.750Z,28.97
2017-07-21T12:15:35.058Z,29.01
2017-07-21T12:16:35.050Z,29.05
2017-07-21T12:17:35.049Z,29.05
2017-07-21T12:18:35.055Z,28.96
2017-07-21T12:19:35.367Z,29.04
2017-07-21T12:20:35.075Z,29.01
2017-07-21T12:21:35.373Z,29.12
2017-07-21T12:22:35.393Z,29.16
2017-07-21T12:23:35.091Z,29.24
2017-07-21T12:24:35.114Z,29.2
2017-07-21T12:25:35.403Z,29.27
2017-07-21T12:26:35.411Z,29.45
2017-07-21T12:27:38.276Z,29.49
2017-07-21T12:28:35.419Z,29.5
2017-07-21T12:29:35.432Z,29.53
2017-07-21T12:30:35.441Z,29.59
2017-07-21T12:31:35.443Z,29.54
2017-07-21T12:32:35.496Z,29.73
2017-07-21T12:33:35.461Z,29.71
2017-07-21T12:34:35.457Z,29.72
2017-07-21T12:35:35.174Z,29.71
2017-07-21T12:36:35.175Z,29.76
2017-07-21T12:37:35.178Z,29.69
2017-07-21T12:38:35.535Z,29.53
2017-07-21T12:39:35.192Z,29.49
2017-07-21T12:40:35.499Z,29.47
2017-07-21T12:41:35.512Z,29.42
2017-07-21T12:42:36.599Z,29.31
2017-07-21T12:43:35.519Z,29.26
2017-07-21T12:44:35.243Z,29.27
2017-07-21T12:45:35.542Z,29.31
2017-07-21T12:46:35.549Z,29.35
2017-07-21T12:47:35.543Z,29.41
2017-07-21T12:48:35.552Z,29.42
2017-07-21T12:49:35.262Z,29.42
2017-07-21T12:50:35.571Z,29.35
2017-07-21T12:51:35.577Z,29.26
2017-07-21T12:52:35.294Z,29.24
2017-07-21T12:53:35.288Z,29.23
2017-07-21T12:54:35.309Z,29.24
2017-07-21T12:55:35.600Z,29.34
2017-07-21T12:56:35.613Z,29.41
2017-07-21T12:57:36.313Z,29.42
2017-07-21T12:58:35.319Z,29.44
2017-07-21T12:59:35.631Z,29.45
2017-07-21T13:00:35.701Z,29.5
2017-07-21T13:01:35.642Z,29.61
2017-07-21T13:02:35.648Z,29.6
2017-07-21T13:03:35.687Z,29.71
2017-07-21T13:04:35.357Z,29.75
2017-07-21T13:05:35.365Z,29.81
2017-07-21T13:06:35.413Z,29.81
2017-07-21T13:07:35.691Z,29.82
2017-07-21T13:08:35.080Z,29.9
2017-07-21T13:09:36.604Z,29.87
2017-07-21T13:10:36.618Z,29.75
2017-07-21T13:11:36.518Z,29.68
2017-07-21T13:12:36.529Z,29.5
2017-07-21T13:13:36.537Z,29.44
2017-07-21T13:14:36.548Z,29.41
2017-07-21T13:15:37.169Z,29.24
2017-07-21T13:16:36.557Z,29.36
2017-07-21T13:17:37.062Z,29.5
2017-07-21T13:18:36.556Z,29.75
2017-07-21T13:19:36.582Z,29.79
2017-07-21T13:21:36.584Z,29.97
2017-07-21T13:22:36.600Z,30.08
2017-07-21T13:23:36.614Z,30.15
2017-07-21T13:24:36.612Z,30.09
2017-07-21T13:25:36.612Z,30.1
2017-07-21T13:26:36.626Z,30.09
2017-07-21T13:27:36.623Z,29.84
2017-07-21T13:28:39.740Z,29.84
2017-07-21T13:29:36.634Z,29.79
2017-07-21T13:30:36.648Z,29.71
2017-07-21T13:31:36.651Z,29.71
2017-07-21T13:32:36.453Z,29.75
2017-07-21T13:33:36.564Z,29.82
2017-07-21T13:34:36.773Z,29.87
2017-07-21T13:35:36.494Z,29.87
2017-07-21T14:17:21.730Z,29.36
2017-07-21T14:18:03.060Z,29.39
2017-07-21T14:19:03.062Z,29.41
2017-07-21T14:20:03.074Z,29.44
2017-07-21T14:21:03.075Z,29.44
2017-07-21T14:22:03.107Z,29.6
2017-07-21T14:23:03.088Z,29.61
2017-07-21T14:24:03.098Z,29.61
2017-07-21T14:25:03.128Z,29.71
2017-07-21T14:26:02.829Z,29.76
2017-07-21T14:27:03.118Z,29.82
2017-07-21T14:28:02.823Z,29.97
2017-07-21T14:29:03.161Z,29.97
2017-07-21T14:30:02.857Z,29.97
2017-07-21T14:31:03.146Z,30.08
2017-07-21T14:32:03.156Z,30.1
2017-07-21T14:33:03.169Z,30.09
2017-07-21T14:34:03.162Z,30.13
2017-07-21T14:35:02.874Z,30.16
2017-07-21T14:36:02.994Z,30.16
2017-07-21T14:37:02.889Z,30.13
2017-07-21T14:38:03.254Z,30.16
2017-07-21T14:39:02.954Z,30.24
2017-07-21T14:40:03.205Z,30.27
2017-07-21T14:41:03.206Z,30.28
2017-07-21T14:42:03.216Z,30.13
2017-07-21T14:43:03.357Z,30.24
2017-07-21T14:44:03.363Z,30.13
2017-07-21T14:45:03.228Z,30.19
2017-07-21T14:46:03.240Z,30.1
2017-07-21T14:47:02.943Z,30.16
2017-07-21T14:48:03.306Z,30.15
2017-07-21T14:49:03.268Z,30.28
2017-07-21T14:50:03.264Z,30.35
2017-07-21T14:51:03.271Z,30.39
2017-07-21T14:52:03.274Z,30.23
2017-07-21T14:53:03.290Z,30.24
2017-07-21T14:54:03.296Z,30.12
2017-07-21T14:55:03.292Z,30.18
2017-07-21T14:56:03.309Z,30.12
2017-07-21T14:57:03.015Z,30.25
2017-07-21T14:58:02.725Z,30.13
2017-07-21T14:59:02.727Z,30.23
2017-07-21T15:00:03.327Z,30.24
2017-07-21T15:01:03.381Z,30.19
2017-07-21T15:02:03.355Z,30.23
2017-07-21T15:03:04.956Z,30.16
2017-07-21T15:04:03.358Z,30.12
2017-07-21T15:05:03.383Z,30.09
2017-07-21T15:06:03.076Z,30.25
2017-07-21T15:07:03.097Z,30.28
2017-07-21T15:08:03.404Z,30.3
2017-07-21T15:09:03.401Z,30.3
2017-07-21T15:10:03.406Z,30.31
2017-07-21T15:11:03.406Z,30.25
2017-07-21T15:12:03.410Z,30.18
2017-07-21T15:13:02.814Z,30.09
2017-07-21T15:14:03.425Z,30.24
2017-07-21T15:15:03.447Z,30.27
2017-07-21T15:16:03.446Z,30.3
2017-07-21T15:17:03.143Z,30.34
2017-07-21T15:18:03.206Z,30.3
2017-07-21T15:19:03.174Z,30.25
2017-07-21T15:20:03.467Z,30.15
2017-07-21T15:21:03.254Z,30.06
2017-07-21T15:22:03.178Z,30
2017-07-21T15:23:03.178Z,29.86
2017-07-21T15:24:03.505Z,29.86
2017-07-21T15:25:03.507Z,29.78
2017-07-21T15:26:03.201Z,29.82
2017-07-21T15:27:03.216Z,29.79
2017-07-21T15:28:03.514Z,29.87
2017-07-21T15:29:03.519Z,29.86
2017-07-21T15:30:02.925Z,29.93
2017-07-21T15:31:03.239Z,29.87
2017-07-21T15:32:02.938Z,29.9
2017-07-21T15:33:06.001Z,29.86
2017-07-21T15:34:03.570Z,29.73
2017-07-21T15:35:03.255Z,29.76
2017-07-21T15:36:03.570Z,29.73
2017-07-21T15:37:03.269Z,29.75
2017-07-21T15:38:02.983Z,29.84
2017-07-21T15:39:03.283Z,29.91
2017-07-21T15:40:03.634Z,29.9
2017-07-21T15:41:03.604Z,29.9
2017-07-21T15:42:03.603Z,29.86
2017-07-21T15:43:03.615Z,29.86
2017-07-21T15:44:03.333Z,29.81
2017-07-21T15:45:03.621Z,29.84
2017-07-21T15:46:03.333Z,29.76
2017-07-21T15:47:03.638Z,29.66
2017-07-21T15:48:03.642Z,29.73
2017-07-21T15:49:03.356Z,29.82
2017-07-21T15:50:03.351Z,29.76
2017-07-21T15:51:03.657Z,29.79
2017-07-21T15:52:03.676Z,29.86
2017-07-21T15:53:03.069Z,29.93
2017-07-21T15:54:03.679Z,29.94
2017-07-21T15:55:03.388Z,30.15
2017-07-21T15:56:03.402Z,30.18
2017-07-21T15:57:03.709Z,30.28
2017-07-21T15:58:03.425Z,30.28
2017-07-21T15:59:03.712Z,30.37
2017-07-21T16:00:04.091Z,30.44
2017-07-21T16:01:03.979Z,30.44
2017-07-21T16:02:05.475Z,30.44
2017-07-21T16:03:05.398Z,30.47
2017-07-21T16:04:09.332Z,30.46
2017-07-21T16:05:03.537Z,30.46
2017-07-21T16:06:03.783Z,30.5
2017-07-21T16:07:03.764Z,30.53
2017-07-21T16:08:04.777Z,30.51
2017-07-21T16:09:03.489Z,30.47
2017-07-21T16:10:03.485Z,30.4
2017-07-21T16:11:03.500Z,30.24
2017-07-21T16:12:03.803Z,30.15
2017-07-21T16:13:03.805Z,29.95
2017-07-21T16:14:03.511Z,29.93